createdAt,value
2018-11-03T00:01:13.728Z,12.05
2018-11-03T00:03:41.133Z,10.60
2018-11-03T00:06:08.433Z,9.28
2018-11-03T00:08:35.749Z,10.73
2018-11-03T00:11:03.081Z,10.25
2018-11-03T00:13:30.363Z,12.05
2018-11-03T00:15:57.712Z,13.70
2018-11-03T00:18:24.993Z,10.63
2018-11-03T00:20:52.285Z,12.87
2018-11-03T00:23:19.576Z,9.97
2018-11-03T00:25:46.902Z,10.75
2018-11-03T00:28:14.259Z,15.25
2018-11-03T00:30:41.585Z,9.38
2018-11-03T00:33:08.873Z,12.80
2018-11-03T00:35:36.169Z,9.83
2018-11-03T00:38:03.512Z,10.30
2018-11-03T00:40:30.805Z,9.50
2018-11-03T00:42:58.094Z,9.50
2018-11-03T00:45:25.409Z,11.85
2018-11-03T00:47:52.709Z,9.43
2018-11-03T00:50:19.992Z,9.13
2018-11-03T00:52:47.285Z,10.10
2018-11-03T00:55:14.580Z,9.53
2018-11-03T00:57:42.372Z,7.50
2018-11-03T01:00:11.753Z,8.75
2018-11-03T01:02:40.229Z,9.50
2018-11-03T01:05:08.121Z,8.73
2018-11-03T01:07:35.985Z,8.83
2018-11-03T01:10:03.513Z,9.63
2018-11-03T01:12:30.797Z,9.63
2018-11-03T01:14:58.080Z,10.20
2018-11-03T01:17:25.356Z,14.87
2018-11-03T01:19:52.649Z,11.50
2018-11-03T01:22:19.941Z,13.20
2018-11-03T01:24:47.225Z,10.07
2018-11-03T01:27:14.590Z,10.90
2018-11-03T01:29:41.953Z,8.20
2018-11-03T01:32:09.313Z,9.23
2018-11-03T01:34:36.716Z,11.60
2018-11-03T01:37:04.088Z,10.30
2018-11-03T01:39:31.573Z,9.07
2018-11-03T01:41:59.244Z,11.20
2018-11-03T01:44:26.532Z,11.15
2018-11-03T01:46:53.829Z,8.58
2018-11-03T01:49:21.549Z,10.27
2018-11-03T01:51:48.825Z,10.20
2018-11-03T01:54:16.228Z,11.12
2018-11-03T01:56:44.161Z,11.67
2018-11-03T01:59:11.521Z,9.40
2018-11-03T02:01:38.828Z,13.03
2018-11-03T02:04:06.174Z,10.60
2018-11-03T02:06:33.580Z,10.95
2018-11-03T02:09:00.877Z,8.90
2018-11-03T02:11:28.377Z,9.87
2018-11-03T02:13:55.670Z,10.18
2018-11-03T02:16:23.300Z,9.98
2018-11-03T02:18:51.063Z,10.30
2018-11-03T02:21:18.542Z,11.78
2018-11-03T02:23:45.879Z,10.20
2018-11-03T02:26:13.170Z,11.30
2018-11-03T02:28:40.461Z,11.55
2018-11-03T02:31:07.768Z,10.53
2018-11-03T02:33:35.066Z,13.85
2018-11-03T02:36:02.374Z,20.27
2018-11-03T02:38:29.675Z,28.85
2018-11-03T02:40:56.969Z,74.87
2018-11-03T02:43:24.273Z,36.35
2018-11-03T02:45:51.577Z,78.52
2018-11-03T02:48:18.881Z,35.23
2018-11-03T02:50:46.169Z,16.35
2018-11-03T02:53:13.456Z,14.65
2018-11-03T02:55:40.750Z,11.25
2018-11-03T02:58:08.017Z,13.15
2018-11-03T03:00:35.325Z,13.20
2018-11-03T03:03:02.677Z,15.83
2018-11-03T03:05:29.952Z,16.80
2018-11-03T03:07:57.248Z,21.33
2018-11-03T03:10:24.521Z,14.90
2018-11-03T03:12:51.808Z,19.75
2018-11-03T03:15:19.089Z,21.75
2018-11-03T03:17:46.406Z,17.80
2018-11-03T03:20:13.651Z,14.87
2018-11-03T03:22:41.196Z,16.07
2018-11-03T03:25:09.401Z,13.80
2018-11-03T03:27:36.697Z,12.40
2018-11-03T03:30:04.401Z,15.90
2018-11-03T03:32:31.696Z,12.03
2018-11-03T03:34:58.988Z,23.98
2018-11-03T03:37:26.317Z,14.70
2018-11-03T03:39:53.606Z,14.75
2018-11-03T03:42:20.981Z,11.30
2018-11-03T03:44:48.288Z,11.40
2018-11-03T03:47:15.589Z,9.63
2018-11-03T03:49:42.853Z,12.73
2018-11-03T03:52:10.129Z,13.53
2018-11-03T03:54:37.549Z,10.23
2018-11-03T03:57:04.941Z,10.00
2018-11-03T03:59:32.233Z,10.35
2018-11-03T04:01:59.519Z,11.15
2018-11-03T04:04:26.818Z,11.43
2018-11-03T04:06:54.123Z,11.00
2018-11-03T04:09:21.376Z,13.05
2018-11-03T04:11:48.652Z,11.73
2018-11-03T04:14:15.940Z,11.12
2018-11-03T04:16:43.212Z,11.95
2018-11-03T04:19:10.526Z,15.70
2018-11-03T04:21:37.807Z,12.03
2018-11-03T04:24:05.133Z,18.65
2018-11-03T04:26:32.407Z,11.73
2018-11-03T04:28:59.714Z,10.70
2018-11-03T04:31:27.486Z,11.85
2018-11-03T04:33:54.802Z,10.40
2018-11-03T04:36:22.093Z,10.20
2018-11-03T04:38:49.464Z,9.15
2018-11-03T04:41:16.765Z,10.88
2018-11-03T04:43:44.062Z,12.65
2018-11-03T04:46:11.341Z,11.25
2018-11-03T04:48:38.613Z,15.95
2018-11-03T04:51:06.234Z,15.75
2018-11-03T04:53:33.500Z,11.33
2018-11-03T04:56:00.784Z,15.32
2018-11-03T04:58:28.057Z,12.78
2018-11-03T05:00:55.357Z,12.45
2018-11-03T05:03:22.727Z,11.15
2018-11-03T05:05:50.096Z,10.15
2018-11-03T05:08:17.382Z,10.82
2018-11-03T05:10:44.665Z,12.25
2018-11-03T05:13:12.824Z,12.68
2018-11-03T05:15:40.114Z,13.65
2018-11-03T05:18:07.380Z,13.03
2018-11-03T05:20:34.682Z,12.90
2018-11-03T05:23:01.950Z,17.50
2018-11-03T05:25:29.237Z,13.58
2018-11-03T05:27:56.601Z,12.73
2018-11-03T05:30:23.880Z,11.33
2018-11-03T05:32:51.148Z,12.20
2018-11-03T05:35:18.437Z,11.75
2018-11-03T05:37:45.718Z,16.50
2018-11-03T05:40:13.017Z,11.97
2018-11-03T05:42:40.280Z,12.35
2018-11-03T05:45:07.617Z,11.20
2018-11-03T05:47:34.897Z,11.95
2018-11-03T05:50:02.194Z,16.80
2018-11-03T05:52:29.537Z,13.85
2018-11-03T05:54:56.838Z,12.20
2018-11-03T05:57:24.129Z,13.78
2018-11-03T05:59:51.406Z,13.38
2018-11-03T06:02:18.713Z,12.43
2018-11-03T06:04:45.988Z,10.55
2018-11-03T06:07:13.318Z,14.05
2018-11-03T06:09:40.609Z,13.98
2018-11-03T06:12:07.873Z,12.55
2018-11-03T06:14:35.174Z,13.98
2018-11-03T06:17:02.514Z,12.30
2018-11-03T06:19:29.785Z,13.25
2018-11-03T06:21:57.252Z,12.95
2018-11-03T06:24:24.812Z,10.68
2018-11-03T06:26:52.124Z,14.20
2018-11-03T06:29:19.449Z,19.17
2018-11-03T06:31:46.726Z,12.45
2018-11-03T06:34:14.053Z,14.30
2018-11-03T06:36:41.340Z,13.68
2018-11-03T06:39:08.858Z,13.15
2018-11-03T06:41:36.297Z,12.65
2018-11-03T06:44:03.669Z,13.40
2018-11-03T06:46:31.017Z,16.77
2018-11-03T06:49:03.837Z,15.72
2018-11-03T06:51:31.253Z,16.20
2018-11-03T06:53:59.344Z,16.55
2018-11-03T06:56:26.617Z,14.98
2018-11-03T06:58:53.905Z,14.60
2018-11-03T07:01:21.196Z,13.88
2018-11-03T07:03:48.498Z,12.37
2018-11-03T07:06:15.801Z,14.05
2018-11-03T07:08:43.121Z,12.43
2018-11-03T07:11:10.408Z,14.80
2018-11-03T07:13:37.696Z,13.90
2018-11-03T07:16:05.350Z,13.60
2018-11-03T07:18:32.649Z,14.53
2018-11-03T07:20:59.933Z,13.95
2018-11-03T07:23:27.233Z,15.23
2018-11-03T07:25:54.496Z,10.95
2018-11-03T07:28:21.876Z,14.40
2018-11-03T07:30:49.132Z,14.35
2018-11-03T07:33:16.441Z,12.40
2018-11-03T07:35:43.741Z,14.80
2018-11-03T07:38:11.101Z,16.90
2018-11-03T07:40:38.395Z,13.22
2018-11-03T07:43:05.640Z,15.28
2018-11-03T07:45:32.984Z,12.50
2018-11-03T07:48:00.332Z,16.23
2018-11-03T07:50:27.536Z,16.12
2018-11-03T07:52:54.805Z,14.35
2018-11-03T07:55:22.105Z,19.55
2018-11-03T07:57:49.418Z,17.40
2018-11-03T08:00:16.729Z,15.53
2018-11-03T08:02:44.037Z,17.60
2018-11-03T08:05:11.796Z,17.30
2018-11-03T08:07:39.129Z,19.45
2018-11-03T08:10:07.628Z,18.52
2018-11-03T08:12:34.939Z,19.23
2018-11-03T08:15:02.221Z,22.58
2018-11-03T08:17:29.488Z,23.83
2018-11-03T08:19:56.813Z,23.65
2018-11-03T08:22:24.409Z,17.52
2018-11-03T08:24:51.723Z,18.00
2018-11-03T08:27:19.004Z,20.50
2018-11-03T08:29:46.292Z,22.42
2018-11-03T08:32:13.580Z,23.30
2018-11-03T08:34:40.857Z,21.02
2018-11-03T08:37:08.161Z,23.00
2018-11-03T08:39:35.545Z,26.25
2018-11-03T08:42:02.800Z,25.27
2018-11-03T08:44:30.088Z,25.05
2018-11-03T08:46:57.377Z,33.38
2018-11-03T08:49:24.648Z,34.18
2018-11-03T08:51:51.926Z,31.07
2018-11-03T08:54:19.210Z,30.85
2018-11-03T08:56:46.493Z,32.88
2018-11-03T08:59:13.772Z,31.55
2018-11-03T09:01:41.054Z,29.02
2018-11-03T09:04:08.332Z,28.90
2018-11-03T09:06:35.638Z,36.50
2018-11-03T09:09:03.806Z,38.85
2018-11-03T09:11:31.069Z,32.13
2018-11-03T09:13:58.336Z,34.05
2018-11-03T09:16:25.608Z,32.75
2018-11-03T09:18:52.901Z,39.03
2018-11-03T09:21:20.261Z,25.72
2018-11-03T09:23:47.590Z,31.17
2018-11-03T09:26:14.886Z,32.90
2018-11-03T09:28:42.201Z,33.75
2018-11-03T09:31:09.572Z,24.35
2018-11-03T09:33:36.860Z,23.90
2018-11-03T09:36:04.573Z,22.77
2018-11-03T09:38:31.927Z,24.85
2018-11-03T09:40:59.161Z,29.98
2018-11-03T09:43:26.592Z,25.65
2018-11-03T09:45:53.870Z,27.32
2018-11-03T09:48:21.164Z,22.20
2018-11-03T09:50:48.681Z,28.07
2018-11-03T09:53:15.816Z,24.43
2018-11-03T09:55:43.101Z,26.77
2018-11-03T09:58:10.410Z,26.07
2018-11-03T10:00:37.689Z,20.90
2018-11-03T10:03:05.130Z,22.13
2018-11-03T10:05:32.419Z,25.40
2018-11-03T10:07:59.733Z,23.03
2018-11-03T10:10:27.017Z,21.82
2018-11-03T10:12:54.305Z,25.93
2018-11-03T10:15:21.605Z,21.67
2018-11-03T10:17:48.915Z,24.43
2018-11-03T10:20:16.198Z,29.18
2018-11-03T10:22:43.528Z,20.90
2018-11-03T10:25:13.269Z,23.07
2018-11-03T10:27:40.834Z,23.60
2018-11-03T10:30:09.544Z,23.32
2018-11-03T10:32:37.472Z,22.32
2018-11-03T10:35:05.194Z,23.70
2018-11-03T10:37:32.496Z,26.82
2018-11-03T10:39:59.818Z,25.23
2018-11-03T10:42:27.357Z,27.10
2018-11-03T10:44:54.872Z,24.50
2018-11-03T10:47:22.136Z,24.20
2018-11-03T10:49:49.415Z,25.35
2018-11-03T10:52:16.697Z,27.20
2018-11-03T10:54:44.025Z,21.03
2018-11-03T10:57:11.397Z,25.83
2018-11-03T10:59:38.892Z,23.23
2018-11-03T11:02:11.866Z,29.97
2018-11-03T11:04:44.760Z,21.87
2018-11-03T11:07:17.395Z,28.00
2018-11-03T11:09:50.597Z,26.00
2018-11-03T11:12:23.701Z,23.87
2018-11-03T11:14:51.189Z,22.70
2018-11-03T11:17:18.461Z,26.80
2018-11-03T11:19:45.776Z,24.67
2018-11-03T11:22:13.109Z,24.53
2018-11-03T11:24:40.659Z,23.40
2018-11-03T11:27:07.845Z,26.10
2018-11-03T11:29:35.129Z,43.70
2018-11-03T11:32:02.449Z,22.03
2018-11-03T11:34:29.712Z,25.67
2018-11-03T11:36:57.009Z,27.13
2018-11-03T11:39:24.330Z,51.90
2018-11-03T11:41:51.593Z,74.80
2018-11-03T11:44:19.163Z,58.53
2018-11-03T11:46:46.447Z,32.90
2018-11-03T11:49:13.862Z,22.90
2018-11-03T11:51:41.153Z,23.40
2018-11-03T11:54:08.528Z,25.13
2018-11-03T11:56:35.796Z,24.53
2018-11-03T11:59:03.158Z,23.30
2018-11-03T12:01:30.540Z,23.80
2018-11-03T12:03:57.821Z,28.70
2018-11-03T12:06:25.205Z,24.60
2018-11-03T12:08:52.473Z,23.50
2018-11-03T12:11:19.793Z,27.93
2018-11-03T12:13:47.180Z,23.70
2018-11-03T12:16:14.525Z,22.77
2018-11-03T12:18:41.728Z,25.37
2018-11-03T12:21:09.053Z,22.53
2018-11-03T12:23:36.361Z,21.77
2018-11-03T12:26:03.853Z,22.57
2018-11-03T12:28:31.124Z,25.47
2018-11-03T12:30:58.420Z,22.80
2018-11-03T12:33:25.693Z,24.57
2018-11-03T12:35:52.972Z,24.47
2018-11-03T12:38:20.292Z,23.30
2018-11-03T12:40:47.656Z,24.23
2018-11-03T12:43:14.869Z,20.73
2018-11-03T12:45:42.177Z,20.83
2018-11-03T12:48:09.507Z,23.57
2018-11-03T12:50:36.719Z,24.63
2018-11-03T12:53:04.060Z,32.67
2018-11-03T12:55:31.333Z,24.03
2018-11-03T12:57:58.614Z,22.60
2018-11-03T13:00:25.876Z,24.57
2018-11-03T13:02:53.152Z,21.73
2018-11-03T13:05:20.543Z,21.27
2018-11-03T13:07:47.790Z,22.23
2018-11-03T13:10:15.086Z,25.00
2018-11-03T13:12:42.673Z,26.90
2018-11-03T13:15:11.251Z,25.10
2018-11-03T13:17:38.780Z,26.97
2018-11-03T13:20:07.300Z,23.30
2018-11-03T13:22:34.592Z,22.00
2018-11-03T13:25:01.854Z,30.20
2018-11-03T13:27:29.132Z,22.53
2018-11-03T13:29:56.406Z,26.73
2018-11-03T13:32:23.669Z,29.77
2018-11-03T13:34:50.973Z,25.00
2018-11-03T13:37:18.244Z,31.90
2018-11-03T13:39:45.586Z,25.33
2018-11-03T13:42:12.860Z,27.33
2018-11-03T13:44:40.153Z,25.90
2018-11-03T13:47:07.504Z,26.43
2018-11-03T13:49:34.945Z,24.30
2018-11-03T13:52:02.209Z,24.57
2018-11-03T13:54:29.491Z,26.10
2018-11-03T13:56:56.791Z,26.80
2018-11-03T13:59:24.074Z,26.73
2018-11-03T14:01:51.409Z,26.60
2018-11-03T14:04:18.685Z,29.23
2018-11-03T14:06:45.940Z,26.50
2018-11-03T14:09:13.239Z,23.57
2018-11-03T14:11:40.642Z,25.83
2018-11-03T14:14:07.988Z,23.97
2018-11-03T14:16:35.435Z,22.43
2018-11-03T14:19:02.757Z,21.90
2018-11-03T14:21:30.120Z,24.20
2018-11-03T14:23:57.585Z,27.73
2018-11-03T14:26:24.953Z,26.73
2018-11-03T14:28:52.242Z,24.37
2018-11-03T14:31:19.541Z,23.97
2018-11-03T14:33:46.797Z,25.13
2018-11-03T14:36:14.175Z,23.47
2018-11-03T14:38:41.409Z,24.03
2018-11-03T14:41:08.676Z,29.50
2018-11-03T14:43:36.021Z,28.17
2018-11-03T14:46:03.401Z,23.37
2018-11-03T14:48:30.709Z,25.43
2018-11-03T14:50:58.163Z,26.13
2018-11-03T14:53:25.409Z,23.20
2018-11-03T14:55:52.675Z,21.93
2018-11-03T14:58:19.941Z,30.23
2018-11-03T15:00:47.233Z,23.33
2018-11-03T15:03:14.496Z,32.47
2018-11-03T15:05:41.792Z,32.13
2018-11-03T15:08:09.061Z,32.00
2018-11-03T15:10:36.393Z,32.53
2018-11-03T15:13:03.852Z,26.83
2018-11-03T15:15:31.148Z,25.13
2018-11-03T15:17:58.404Z,27.73
2018-11-03T15:20:25.669Z,32.43
2018-11-03T15:22:52.981Z,29.87
2018-11-03T15:25:20.288Z,27.93
2018-11-03T15:27:47.633Z,39.13
2018-11-03T15:30:15.004Z,35.37
2018-11-03T15:32:42.533Z,27.07
2018-11-03T15:35:10.556Z,27.67
2018-11-03T15:37:38.177Z,30.10
2018-11-03T15:40:07.545Z,37.87
2018-11-03T15:42:34.928Z,27.80
2018-11-03T15:45:02.328Z,33.77
2018-11-03T15:47:29.634Z,29.07
2018-11-03T15:49:56.933Z,28.33
2018-11-03T15:52:24.862Z,25.50
2018-11-03T15:54:52.151Z,24.23
2018-11-03T15:57:19.485Z,28.40
2018-11-03T15:59:46.771Z,26.93
2018-11-03T16:02:14.060Z,24.60
2018-11-03T16:04:41.334Z,25.13
2018-11-03T16:07:08.619Z,32.30
2018-11-03T16:09:35.900Z,28.53
2018-11-03T16:12:03.277Z,22.13
2018-11-03T16:14:30.609Z,26.80
2018-11-03T16:16:57.896Z,23.97
2018-11-03T16:19:25.275Z,23.60
2018-11-03T16:21:52.520Z,24.37
2018-11-03T16:24:19.816Z,24.57
2018-11-03T16:26:47.120Z,24.47
2018-11-03T16:29:14.419Z,24.40
2018-11-03T16:31:41.731Z,26.33
2018-11-03T16:34:09.108Z,25.17
2018-11-03T16:36:36.419Z,26.40
2018-11-03T16:39:06.510Z,31.20
2018-11-03T16:41:33.782Z,37.60
2018-11-03T16:44:01.073Z,37.50
2018-11-03T16:46:28.340Z,46.90
2018-11-03T16:48:55.592Z,49.07
2018-11-03T16:51:22.857Z,47.70
2018-11-03T16:53:50.117Z,39.90
2018-11-03T16:56:17.383Z,33.53
2018-11-03T16:58:44.678Z,32.87
2018-11-03T17:01:11.914Z,28.90
2018-11-03T17:03:39.273Z,33.83
2018-11-03T17:06:06.565Z,33.30
2018-11-03T17:08:33.917Z,30.50
2018-11-03T17:11:01.188Z,36.23
2018-11-03T17:13:28.461Z,33.77
2018-11-03T17:15:55.746Z,40.67
2018-11-03T17:18:23.005Z,37.30
2018-11-03T17:20:50.298Z,40.60
2018-11-03T17:23:17.606Z,34.33
2018-11-03T17:25:44.857Z,37.47
2018-11-03T17:28:12.112Z,33.27
2018-11-03T17:30:39.430Z,35.67
2018-11-03T17:33:06.713Z,35.43
2018-11-03T17:35:33.993Z,32.03
2018-11-03T17:38:01.273Z,33.33
2018-11-03T17:40:28.596Z,44.10
2018-11-03T17:42:55.858Z,55.10
2018-11-03T17:45:23.149Z,55.07
2018-11-03T17:47:50.484Z,63.63
2018-11-03T17:50:17.757Z,34.97
2018-11-03T17:52:45.021Z,35.47
2018-11-03T17:55:12.379Z,39.13
2018-11-03T17:57:39.700Z,32.97
2018-11-03T18:00:10.331Z,32.73
2018-11-03T18:02:37.626Z,31.30
2018-11-03T18:05:05.308Z,29.47
2018-11-03T18:07:32.639Z,31.30
2018-11-03T18:09:59.905Z,34.33
2018-11-03T18:12:27.173Z,31.90
2018-11-03T18:14:54.454Z,32.97
2018-11-03T18:17:21.758Z,33.43
2018-11-03T18:19:49.116Z,32.90
2018-11-03T18:22:16.316Z,37.67
2018-11-03T18:24:43.614Z,44.33
2018-11-03T18:27:10.909Z,46.33
2018-11-03T18:29:38.268Z,47.90
2018-11-03T18:32:05.557Z,49.70
2018-11-03T18:34:32.826Z,52.93
2018-11-03T18:37:00.225Z,60.13
2018-11-03T18:39:27.505Z,65.70
2018-11-03T18:41:54.805Z,57.77
2018-11-03T18:44:22.107Z,42.93
2018-11-03T18:46:49.527Z,36.77
2018-11-03T18:49:16.694Z,39.37
2018-11-03T18:51:44.027Z,58.93
2018-11-03T18:54:11.317Z,40.53
2018-11-03T18:56:38.601Z,40.93
2018-11-03T18:59:05.895Z,37.03
2018-11-03T19:01:33.186Z,40.17
2018-11-03T19:04:00.480Z,32.77
2018-11-03T19:06:27.775Z,28.93
2018-11-03T19:08:55.093Z,32.83
2018-11-03T19:11:22.412Z,35.80
2018-11-03T19:13:49.725Z,29.87
2018-11-03T19:16:17.023Z,31.23
2018-11-03T19:18:44.316Z,30.70
2018-11-03T19:21:11.602Z,31.93
2018-11-03T19:23:38.971Z,32.30
2018-11-03T19:26:06.232Z,30.80
2018-11-03T19:28:33.520Z,38.20
2018-11-03T19:31:00.804Z,40.37
2018-11-03T19:33:28.101Z,45.70
2018-11-03T19:35:55.369Z,41.40
2018-11-03T19:38:22.685Z,43.00
2018-11-03T19:40:49.936Z,44.03
2018-11-03T19:43:17.248Z,35.90
2018-11-03T19:45:44.543Z,35.73
2018-11-03T19:48:11.867Z,30.20
2018-11-03T19:50:39.128Z,34.30
2018-11-03T19:53:06.453Z,36.87
2018-11-03T19:55:34.001Z,36.80
2018-11-03T19:58:01.261Z,34.17
2018-11-03T20:00:28.564Z,37.87
2018-11-03T20:02:55.843Z,42.90
2018-11-03T20:05:23.136Z,44.60
2018-11-03T20:07:50.425Z,41.07
2018-11-03T20:10:17.757Z,43.17
2018-11-03T20:12:45.018Z,38.80
2018-11-03T20:15:12.837Z,39.00
2018-11-03T20:17:40.374Z,41.30
2018-11-03T20:20:09.156Z,43.13
2018-11-03T20:22:36.428Z,39.70
2018-11-03T20:25:04.888Z,34.83
2018-11-03T20:27:32.153Z,41.87
2018-11-03T20:29:59.452Z,34.10
2018-11-03T20:32:26.713Z,37.50
2018-11-03T20:34:54.072Z,39.60
2018-11-03T20:37:21.337Z,44.93
2018-11-03T20:39:48.623Z,45.43
2018-11-03T20:42:15.908Z,43.57
2018-11-03T20:44:43.200Z,43.30
2018-11-03T20:47:10.473Z,39.73
2018-11-03T20:49:37.732Z,44.10
2018-11-03T20:52:05.138Z,38.00
2018-11-03T20:54:32.482Z,41.23
2018-11-03T20:56:59.756Z,45.80
2018-11-03T20:59:27.035Z,47.73
2018-11-03T21:01:54.315Z,42.23
2018-11-03T21:04:21.613Z,38.80
2018-11-03T21:06:48.865Z,38.07
2018-11-03T21:09:16.142Z,42.57
2018-11-03T21:11:43.431Z,46.27
2018-11-03T21:14:10.730Z,48.87
2018-11-03T21:16:38.081Z,43.53
2018-11-03T21:19:05.717Z,41.10
2018-11-03T21:21:33.000Z,41.87
2018-11-03T21:24:00.581Z,42.80
2018-11-03T21:26:27.798Z,38.27
2018-11-03T21:28:55.060Z,46.90
2018-11-03T21:31:22.397Z,37.47
2018-11-03T21:33:49.658Z,41.43
2018-11-03T21:36:16.962Z,41.00
2018-11-03T21:38:44.348Z,39.20
2018-11-03T21:41:11.590Z,40.35
2018-11-03T21:43:38.869Z,41.77
2018-11-03T21:46:06.653Z,43.53
2018-11-03T21:48:33.892Z,45.00
2018-11-03T21:51:01.184Z,40.93
2018-11-03T21:53:28.456Z,45.17
2018-11-03T21:55:55.848Z,40.30
2018-11-03T21:58:23.038Z,49.70
2018-11-03T22:00:50.336Z,70.63
2018-11-03T22:03:17.672Z,72.00
2018-11-03T22:05:44.967Z,66.60
2018-11-03T22:08:12.233Z,71.50
2018-11-03T22:10:39.614Z,53.57
2018-11-03T22:13:06.899Z,54.77
2018-11-03T22:15:34.209Z,53.13
2018-11-03T22:18:01.488Z,53.50
2018-11-03T22:20:28.773Z,53.73
2018-11-03T22:22:56.045Z,55.47
2018-11-03T22:25:23.352Z,52.50
2018-11-03T22:27:50.715Z,58.10
2018-11-03T22:30:17.964Z,50.20
2018-11-03T22:32:45.313Z,49.63
2018-11-03T22:35:12.613Z,52.90
2018-11-03T22:37:39.954Z,46.00
2018-11-03T22:40:07.705Z,55.70
2018-11-03T22:42:35.001Z,54.30
2018-11-03T22:45:02.319Z,60.50
2018-11-03T22:47:29.634Z,54.70
2018-11-03T22:49:56.932Z,52.43
2018-11-03T22:52:24.256Z,58.07
2018-11-03T22:54:51.593Z,56.87
2018-11-03T22:57:18.881Z,53.43
2018-11-03T22:59:46.256Z,54.73
2018-11-03T23:02:13.549Z,50.80
2018-11-03T23:04:40.868Z,55.60
2018-11-03T23:07:08.191Z,52.10
2018-11-03T23:09:35.490Z,47.70
2018-11-03T23:12:03.261Z,51.63
2018-11-03T23:14:30.565Z,51.83
2018-11-03T23:16:57.854Z,54.83
2018-11-03T23:19:25.211Z,54.17
2018-11-03T23:21:52.530Z,49.30
2018-11-03T23:24:19.818Z,57.53
2018-11-03T23:26:47.157Z,48.80
2018-11-03T23:29:14.485Z,48.77
2018-11-03T23:31:41.768Z,49.20
2018-11-03T23:34:09.066Z,48.67
2018-11-03T23:36:36.409Z,45.57
2018-11-03T23:39:06.540Z,50.07
2018-11-03T23:41:33.841Z,49.97
2018-11-03T23:44:01.148Z,47.60
2018-11-03T23:46:28.416Z,49.53
2018-11-03T23:48:55.718Z,45.67
2018-11-03T23:51:23.015Z,49.47
2018-11-03T23:53:50.304Z,47.80
2018-11-03T23:56:17.577Z,48.17
2018-11-03T23:58:44.873Z,44.83
